Time;durP1;ratioP1;P1;durP2;ratioP2;P2;SDS_P1;SDS_P2;PMS_P1;PMS_P2;Temp;Humidity;BMP_temperature;BMP_pressure;BME280_temperature;BME280_humidity;BME280_pressure;Samples;Min_cycle;Max_cycle;Signal;HPM_P1;HPM_P2
2022/09/10 00:01:54;;;;;;;;;;;;;;;24.03;58.48;99237.09;4474248;32;33694;-63
2022/09/10 00:04:21;;;;;;;;;;;;;;;24.00;58.85;99243.00;4475339;31;34958;-63
2022/09/10 00:06:49;;;;;;;;;;;;;;;24.03;58.92;99242.56;4470172;32;32893;-63
2022/09/10 00:09:16;;;;;;;;;;;;;;;24.03;59.02;99239.84;4479664;31;33461;-63
2022/09/10 00:11:45;;;;;;;;;;;;;;;24.02;58.82;99235.44;4474322;32;34094;-63
2022/09/10 00:14:14;;;;;;;;;;;;;;;24.04;58.84;99238.75;4480090;32;35107;-62
2022/09/10 00:16:41;;;;;;;;;;;;;;;24.10;58.59;99236.00;4474363;31;34450;-63
2022/09/10 00:19:09;;;;;;;;;;;;;;;24.13;58.47;99232.00;4474828;32;33674;-63
2022/09/10 00:21:36;;;;;;;;;;;;;;;24.17;58.14;99241.47;4477609;31;33998;-62
2022/09/10 00:24:04;;;;;;;;;;;;;;;24.10;58.07;99229.72;4480577;32;33881;-62
2022/09/10 00:26:37;;;;;;;;;;;;;;;24.13;57.87;99223.81;4474347;32;34851;-63
2022/09/10 00:29:05;;;;;;;;;;;;;;;24.18;57.51;99226.75;4478275;32;33579;-63
2022/09/10 00:31:33;;;;;;;;;;;;;;;24.17;57.02;99220.44;4477087;31;35143;-64
2022/09/10 00:34:01;;;;;;;;;;;;;;;23.96;57.45;99215.25;4481131;32;34070;-64
2022/09/10 00:36:31;;;;;;;;;;;;;;;24.10;56.90;99213.31;4476722;32;33817;-64
2022/09/10 00:39:03;;;;;;;;;;;;;;;24.16;56.49;99217.91;4476576;32;33985;-64
2022/09/10 00:41:32;;;;;;;;;;;;;;;23.90;56.80;99214.19;4475154;32;34070;-63
2022/09/10 00:44:01;;;;;;;;;;;;;;;23.97;56.24;99219.66;4473975;32;35495;-64
2022/09/10 00:46:34;;;;;;;;;;;;;;;23.91;56.36;99221.34;4476825;32;35914;-64
2022/09/10 00:49:04;;;;;;;;;;;;;;;23.90;56.56;99211.47;4477252;32;33646;-63
2022/09/10 00:51:32;;;;;;;;;;;;;;;23.91;56.79;99215.87;4482252;32;34055;-63
2022/09/10 00:54:00;;;;;;;;;;;;;;;23.87;56.91;99214.63;4468322;32;33409;-63
2022/09/10 00:56:27;;;;;;;;;;;;;;;23.92;56.87;99206.66;4471160;32;35471;-63
2022/09/10 00:58:55;;;;;;;;;;;;;;;23.97;56.81;99206.00;4476105;32;33586;-64
2022/09/10 01:01:22;;;;;;;;;;;;;;;23.99;56.87;99205.78;4470661;32;33400;-65
2022/09/10 01:03:50;;;;;;;;;;;;;;;24.00;57.03;99197.34;4479545;32;34252;-64
2022/09/10 01:06:17;;;;;;;;;;;;;;;23.98;57.12;99204.94;4468705;32;32800;-64
2022/09/10 01:08:44;;;;;;;;;;;;;;;24.01;56.84;99199.03;4470816;32;33349;-64
2022/09/10 01:11:23;;;;;;;;;;;;;;;24.02;56.68;99202.63;4482479;32;33968;-64
2022/09/10 01:13:59;;;;;;;;;;;;;;;23.83;56.91;99202.47;4478019;32;34910;-64
2022/09/10 01:16:43;;;;;;;;;;;;;;;23.81;56.56;99196.34;4472073;32;35112;-63
2022/09/10 01:19:23;;;;;;;;;;;;;;;23.77;56.08;99197.00;4479328;32;34628;-64
2022/09/10 01:22:09;;;;;;;;;;;;;;;23.80;55.76;99191.13;4483335;32;34214;-64
2022/09/10 01:24:45;;;;;;;;;;;;;;;23.73;55.98;99188.41;4478305;32;35447;-64
2022/09/10 01:27:49;;;;;;;;;;;;;;;23.64;56.68;99187.75;4471173;32;34200;-63
2022/09/10 01:30:18;;;;;;;;;;;;;;;23.64;56.72;99176.81;4413304;32;32098;-63
2022/09/10 01:32:57;;;;;;;;;;;;;;;23.61;56.33;99170.94;4466221;32;33995;-63
2022/09/10 01:35:29;;;;;;;;;;;;;;;23.63;55.87;99164.22;4478980;32;35210;-64
2022/09/10 01:37:58;;;;;;;;;;;;;;;23.57;55.50;99158.78;4482480;32;35309;-63
2022/09/10 01:40:28;;;;;;;;;;;;;;;23.48;56.06;99148.06;4468233;32;33328;-63
2022/09/10 01:42:59;;;;;;;;;;;;;;;23.67;55.70;99150.97;4481336;32;34363;-64
2022/09/10 01:45:27;;;;;;;;;;;;;;;23.73;55.22;99154.78;4482742;32;35338;-63
2022/09/10 01:47:58;;;;;;;;;;;;;;;23.60;54.66;99142.78;4474713;32;34477;-63
2022/09/10 01:50:40;;;;;;;;;;;;;;;23.51;55.10;99137.78;4476502;32;34354;-63
2022/09/10 01:53:08;;;;;;;;;;;;;;;23.55;54.59;99150.78;4479647;32;34147;-63
2022/09/10 01:55:55;;;;;;;;;;;;;;;23.52;54.63;99166.75;4481186;32;34041;-63
2022/09/10 01:58:32;;;;;;;;;;;;;;;23.53;54.51;99161.09;4484155;32;34956;-63
2022/09/10 02:01:03;;;;;;;;;;;;;;;23.52;54.85;99143.00;4469027;32;33718;-63
2022/09/10 02:03:31;;;;;;;;;;;;;;;23.21;55.95;99130.88;4479484;32;34967;-64
2022/09/10 02:05:59;;;;;;;;;;;;;;;22.93;56.45;99120.19;4476870;32;34502;-63
2022/09/10 02:08:29;;;;;;;;;;;;;;;23.05;56.20;99114.06;4481596;32;33388;-63
2022/09/10 02:10:59;;;;;;;;;;;;;;;23.25;55.67;99126.66;4469964;32;33703;-63
2022/09/10 02:13:27;;;;;;;;;;;;;;;22.73;56.89;99132.94;4476737;32;34068;-63
2022/09/10 02:15:55;;;;;;;;;;;;;;;22.85;56.71;99136.72;4477758;32;34933;-63
2022/09/10 02:18:23;;;;;;;;;;;;;;;23.12;56.05;99134.03;4469713;32;34236;-62
2022/09/10 02:20:51;;;;;;;;;;;;;;;22.99;56.09;99141.19;4478422;32;33160;-62
2022/09/10 02:23:20;;;;;;;;;;;;;;;22.89;56.36;99142.59;4481320;32;34180;-63
2022/09/10 02:25:50;;;;;;;;;;;;;;;22.48;56.39;99149.88;4474774;32;32843;-63
2022/09/10 02:28:20;;;;;;;;;;;;;;;22.22;56.86;99144.38;4479564;32;34068;-63
2022/09/10 02:30:48;;;;;;;;;;;;;;;22.22;56.26;99139.75;4482729;32;34441;-62
2022/09/10 02:33:17;;;;;;;;;;;;;;;22.26;56.12;99135.56;4483306;32;34209;-63
2022/09/10 02:35:46;;;;;;;;;;;;;;;22.03;56.89;99124.97;4483717;32;34822;-63
2022/09/10 02:38:15;;;;;;;;;;;;;;;21.99;57.34;99129.16;4480454;32;35223;-63
2022/09/10 02:40:42;;;;;;;;;;;;;;;22.03;56.95;99124.97;4482387;32;31898;-63
2022/09/10 02:43:09;;;;;;;;;;;;;;;21.64;58.29;99125.63;4478392;32;34422;-63
2022/09/10 02:45:37;;;;;;;;;;;;;;;21.80;57.26;99130.75;4482158;32;34633;-63
2022/09/10 02:48:05;;;;;;;;;;;;;;;22.23;56.11;99126.97;4480122;32;34336;-63
2022/09/10 02:50:32;;;;;;;;;;;;;;;22.40;55.25;99127.41;4480580;32;33730;-63
2022/09/10 02:53:01;;;;;;;;;;;;;;;22.39;55.26;99125.75;4482765;32;32430;-62
2022/09/10 02:55:30;;;;;;;;;;;;;;;22.12;56.09;99128.38;4483384;32;34428;-62
2022/09/10 02:57:57;;;;;;;;;;;;;;;21.49;57.25;99133.91;4477369;32;34785;-63
2022/09/10 03:00:25;;;;;;;;;;;;;;;22.22;54.93;99128.84;4479072;32;33316;-63
2022/09/10 03:02:54;;;;;;;;;;;;;;;21.89;55.68;99125.94;4481113;32;34174;-62
2022/09/10 03:05:28;;;;;;;;;;;;;;;21.99;54.72;99133.75;4481211;32;34440;-63
2022/09/10 03:07:56;;;;;;;;;;;;;;;22.21;53.97;99139.94;4479264;32;33252;-63
2022/09/10 03:10:23;;;;;;;;;;;;;;;22.10;54.51;99141.34;4476248;32;34968;-63
2022/09/10 03:12:52;;;;;;;;;;;;;;;22.07;54.84;99126.25;4481523;32;34012;-63
2022/09/10 03:15:19;;;;;;;;;;;;;;;22.03;54.81;99135.88;4482148;32;32592;-63
2022/09/10 03:17:47;;;;;;;;;;;;;;;22.13;54.35;99132.75;4482650;32;34739;-62
2022/09/10 03:20:14;;;;;;;;;;;;;;;21.45;56.06;99135.38;4482215;32;33829;-63
2022/09/10 03:22:41;;;;;;;;;;;;;;;22.14;54.19;99134.44;4482368;32;34006;-62
2022/09/10 03:25:10;;;;;;;;;;;;;;;21.92;55.29;99130.16;4478989;32;34198;-63
2022/09/10 03:27:38;;;;;;;;;;;;;;;22.04;55.38;99128.53;4483074;32;35120;-63
2022/09/10 03:30:06;;;;;;;;;;;;;;;21.47;56.84;99126.97;4479088;32;33641;-62
2022/09/10 03:32:33;;;;;;;;;;;;;;;21.59;56.74;99130.84;4484057;32;34435;-62
2022/09/10 03:35:01;;;;;;;;;;;;;;;21.51;56.64;99130.97;4478113;32;35508;-62
2022/09/10 03:37:30;;;;;;;;;;;;;;;21.97;55.19;99119.50;4481680;32;35528;-63
2022/09/10 03:39:57;;;;;;;;;;;;;;;21.75;56.23;99119.59;4478803;32;33686;-62
2022/09/10 03:42:25;;;;;;;;;;;;;;;21.84;55.82;99118.41;4482953;32;33974;-62
2022/09/10 03:44:54;;;;;;;;;;;;;;;21.98;55.25;99116.56;4480673;32;34299;-63
2022/09/10 03:47:21;;;;;;;;;;;;;;;21.53;55.96;99121.56;4475319;32;34526;-63
2022/09/10 03:49:49;;;;;;;;;;;;;;;21.95;54.71;99121.56;4469949;32;32688;-63
2022/09/10 03:52:17;;;;;;;;;;;;;;;22.06;54.59;99127.28;4473725;32;34050;-63
2022/09/10 03:54:44;;;;;;;;;;;;;;;21.45;55.35;99127.19;4479025;32;33946;-63
2022/09/10 03:57:12;;;;;;;;;;;;;;;21.55;55.19;99127.66;4479918;32;33948;-63
2022/09/10 03:59:40;;;;;;;;;;;;;;;22.17;53.56;99128.59;4477971;32;32249;-63
2022/09/10 04:02:08;;;;;;;;;;;;;;;22.26;53.16;99118.38;4477735;32;33688;-63
2022/09/10 04:04:36;;;;;;;;;;;;;;;21.67;54.77;99127.09;4479316;32;33240;-62
2022/09/10 04:07:03;;;;;;;;;;;;;;;21.86;54.21;99129.06;4478660;32;34177;-63
2022/09/10 04:09:32;;;;;;;;;;;;;;;22.08;53.70;99127.91;4480097;32;33467;-63
2022/09/10 04:12:01;;;;;;;;;;;;;;;21.39;55.76;99123.38;4478134;32;33016;-63
2022/09/10 04:14:29;;;;;;;;;;;;;;;21.71;54.40;99136.56;4478870;32;33997;-63
2022/09/10 04:16:57;;;;;;;;;;;;;;;21.36;55.01;99131.94;4476435;32;34698;-63
2022/09/10 04:19:26;;;;;;;;;;;;;;;21.77;53.83;99136.59;4482084;32;33360;-62
2022/09/10 04:21:54;;;;;;;;;;;;;;;21.50;54.11;99135.59;4473822;32;35680;-63
2022/09/10 04:24:22;;;;;;;;;;;;;;;21.75;53.83;99138.66;4479553;32;34256;-62
2022/09/10 04:26:49;;;;;;;;;;;;;;;21.92;53.36;99141.06;4478451;32;34969;-63
2022/09/10 04:29:17;;;;;;;;;;;;;;;22.00;52.90;99146.34;4472697;32;32036;-63
2022/09/10 04:31:45;;;;;;;;;;;;;;;22.02;52.81;99152.41;4474842;32;33819;-63
2022/09/10 04:34:14;;;;;;;;;;;;;;;21.83;53.39;99154.03;4479371;32;34209;-62
2022/09/10 04:36:42;;;;;;;;;;;;;;;21.77;53.83;99158.38;4480683;32;33986;-63
2022/09/10 04:39:09;;;;;;;;;;;;;;;21.82;53.10;99155.87;4481170;32;33552;-63
2022/09/10 04:41:37;;;;;;;;;;;;;;;21.43;53.86;99142.88;4483079;32;35657;-64
2022/09/10 04:44:06;;;;;;;;;;;;;;;21.24;54.43;99144.38;4480000;32;32843;-63
2022/09/10 04:46:33;;;;;;;;;;;;;;;21.81;53.51;99143.31;4481090;32;35167;-64
2022/09/10 04:49:02;;;;;;;;;;;;;;;21.35;54.60;99143.06;4479836;32;32829;-63
2022/09/10 04:51:30;;;;;;;;;;;;;;;21.54;53.86;99147.78;4476494;32;33829;-62
2022/09/10 04:53:58;;;;;;;;;;;;;;;21.63;54.05;99140.28;4482621;32;32806;-63
2022/09/10 04:56:26;;;;;;;;;;;;;;;21.73;53.72;99135.28;4477576;32;35163;-62
2022/09/10 04:58:53;;;;;;;;;;;;;;;21.72;53.45;99139.06;4471392;32;33102;-62
2022/09/10 05:01:20;;;;;;;;;;;;;;;21.92;52.88;99128.25;4481706;32;34267;-62
2022/09/10 05:03:49;;;;;;;;;;;;;;;21.66;54.33;99144.47;4479683;32;34312;-62
2022/09/10 05:06:19;;;;;;;;;;;;;;;21.69;53.86;99138.63;4475734;32;33201;-62
2022/09/10 05:08:46;;;;;;;;;;;;;;;21.56;54.49;99134.78;4479833;32;33327;-63
2022/09/10 05:11:14;;;;;;;;;;;;;;;21.19;54.71;99138.72;4476525;32;33919;-62
2022/09/10 05:13:42;;;;;;;;;;;;;;;21.47;54.17;99138.72;4481409;32;35226;-62
2022/09/10 05:16:10;;;;;;;;;;;;;;;21.69;54.21;99133.19;4480646;32;34413;-62
2022/09/10 05:18:38;;;;;;;;;;;;;;;21.91;53.42;99131.22;4482102;32;32949;-65
2022/09/10 05:21:07;;;;;;;;;;;;;;;21.09;55.88;99136.34;4479715;32;33420;-63
2022/09/10 05:23:35;;;;;;;;;;;;;;;21.73;54.81;99139.91;4482431;32;33322;-62
2022/09/10 05:26:02;;;;;;;;;;;;;;;21.58;54.74;99146.34;4476284;32;34404;-63
2022/09/10 05:28:29;;;;;;;;;;;;;;;21.31;55.79;99147.16;4484081;32;31846;-64
2022/09/10 05:30:57;;;;;;;;;;;;;;;21.72;54.44;99144.50;4479172;32;33958;-63
2022/09/10 05:33:25;;;;;;;;;;;;;;;21.59;54.32;99145.28;4480083;32;34239;-62
2022/09/10 05:35:52;;;;;;;;;;;;;;;21.64;54.24;99150.16;4472878;32;34494;-62
2022/09/10 05:38:20;;;;;;;;;;;;;;;21.49;55.02;99150.25;4477773;32;32943;-64
2022/09/10 05:40:48;;;;;;;;;;;;;;;21.38;55.65;99156.25;4477906;32;33833;-65
2022/09/10 05:43:15;;;;;;;;;;;;;;;21.93;54.10;99159.94;4480381;32;33360;-64
2022/09/10 05:45:43;;;;;;;;;;;;;;;21.48;54.73;99159.47;4477878;32;33057;-61
2022/09/10 05:48:10;;;;;;;;;;;;;;;21.21;55.94;99154.81;4481226;32;34395;-63
2022/09/10 05:50:39;;;;;;;;;;;;;;;21.58;55.00;99159.12;4482342;32;34450;-61
2022/09/10 05:53:08;;;;;;;;;;;;;;;21.44;55.33;99158.16;4480928;32;34563;-62
2022/09/10 05:55:36;;;;;;;;;;;;;;;21.48;55.55;99154.03;4477363;32;33165;-62
2022/09/10 05:58:05;;;;;;;;;;;;;;;21.07;56.51;99153.91;4479899;32;31932;-62
2022/09/10 06:00:35;;;;;;;;;;;;;;;20.66;57.40;99149.97;4476048;32;35226;-63
2022/09/10 06:03:04;;;;;;;;;;;;;;;20.19;58.83;99153.16;4470404;32;33970;-61
2022/09/10 06:05:32;;;;;;;;;;;;;;;20.84;56.74;99152.22;4478791;32;35326;-61
2022/09/10 06:08:01;;;;;;;;;;;;;;;21.16;55.80;99150.84;4480855;32;32369;-61
2022/09/10 06:10:35;;;;;;;;;;;;;;;20.83;56.15;99150.53;4483891;32;35030;-62
2022/09/10 06:13:02;;;;;;;;;;;;;;;21.17;55.89;99143.50;4479327;32;34362;-61
2022/09/10 06:15:29;;;;;;;;;;;;;;;21.30;55.39;99142.75;4480342;32;34397;-61
2022/09/10 06:17:57;;;;;;;;;;;;;;;21.13;56.53;99144.94;4480679;32;33623;-61
2022/09/10 06:20:25;;;;;;;;;;;;;;;21.44;55.54;99141.00;4477084;32;32792;-61
2022/09/10 06:22:53;;;;;;;;;;;;;;;21.36;55.79;99147.44;4477977;32;33835;-61
2022/09/10 06:25:21;;;;;;;;;;;;;;;21.22;56.53;99132.87;4480842;32;34737;-61
2022/09/10 06:27:49;;;;;;;;;;;;;;;21.36;55.65;99136.56;4477852;32;33090;-61
2022/09/10 06:30:19;;;;;;;;;;;;;;;20.99;57.20;99141.25;4476969;32;35146;-63
2022/09/10 06:32:47;;;;;;;;;;;;;;;21.10;56.52;99139.91;4477053;32;33309;-61
2022/09/10 06:35:14;;;;;;;;;;;;;;;20.76;57.00;99143.34;4479727;32;33059;-62
2022/09/10 06:37:42;;;;;;;;;;;;;;;20.97;56.84;99146.06;4476102;32;33167;-61
2022/09/10 06:40:10;;;;;;;;;;;;;;;21.26;55.95;99150.47;4478585;32;32767;-62
2022/09/10 06:42:39;;;;;;;;;;;;;;;20.96;56.51;99152.53;4480024;32;34703;-61
2022/09/10 06:45:07;;;;;;;;;;;;;;;20.83;57.39;99149.69;4482667;32;34139;-61
2022/09/10 06:47:36;;;;;;;;;;;;;;;20.96;56.83;99146.25;4475348;32;33076;-61
2022/09/10 06:50:24;;;;;;;;;;;;;;;20.71;57.80;99143.97;4477753;32;33493;-62
2022/09/10 06:52:53;;;;;;;;;;;;;;;20.89;56.91;99151.62;4478131;32;32353;-62
2022/09/10 06:55:21;;;;;;;;;;;;;;;20.16;59.59;99149.00;4477644;32;35211;-61
2022/09/10 06:57:49;;;;;;;;;;;;;;;20.50;59.62;99152.91;4478183;32;34294;-61
2022/09/10 07:00:17;;;;;;;;;;;;;;;20.99;57.75;99164.91;4473590;32;35200;-61
2022/09/10 07:02:44;;;;;;;;;;;;;;;20.96;58.16;99163.41;4474898;32;34322;-62
2022/09/10 07:05:12;;;;;;;;;;;;;;;21.08;58.24;99166.44;4471342;32;35775;-63
2022/09/10 07:07:40;;;;;;;;;;;;;;;20.82;59.04;99164.34;4476075;32;33426;-62
2022/09/10 07:10:08;;;;;;;;;;;;;;;20.81;59.06;99176.25;4481882;32;35194;-61
2022/09/10 07:12:35;;;;;;;;;;;;;;;20.58;60.56;99176.47;4478591;32;34454;-62
2022/09/10 07:15:04;;;;;;;;;;;;;;;20.94;58.96;99179.94;4477273;32;33536;-61
2022/09/10 07:17:33;;;;;;;;;;;;;;;21.29;58.35;99187.34;4480015;32;32326;-61
2022/09/10 07:20:01;;;;;;;;;;;;;;;21.15;59.00;99186.37;4481668;32;34786;-61
2022/09/10 07:22:31;;;;;;;;;;;;;;;21.05;59.09;99197.59;4477778;32;35211;-62
2022/09/10 07:24:59;;;;;;;;;;;;;;;21.30;58.81;99194.47;4480589;32;34433;-61
2022/09/10 07:27:26;;;;;;;;;;;;;;;21.42;58.66;99202.97;4477347;32;33969;-61
2022/09/10 07:29:54;;;;;;;;;;;;;;;21.74;57.98;99207.81;4481786;32;33737;-61
2022/09/10 07:32:22;;;;;;;;;;;;;;;21.81;57.84;99191.50;4478831;32;33048;-62
2022/09/10 07:34:54;;;;;;;;;;;;;;;21.98;57.54;99198.28;4482817;32;33799;-61
2022/09/10 07:37:24;;;;;;;;;;;;;;;21.28;58.94;99202.81;4480303;32;34318;-61
2022/09/10 07:39:52;;;;;;;;;;;;;;;21.79;57.66;99210.75;4469455;32;33574;-61
2022/09/10 07:42:19;;;;;;;;;;;;;;;21.73;58.28;99217.00;4476149;32;33070;-61
2022/09/10 07:44:48;;;;;;;;;;;;;;;21.67;58.30;99215.09;4480884;31;34041;-62
2022/09/10 07:47:17;;;;;;;;;;;;;;;21.97;57.10;99218.44;4478361;32;32586;-61
2022/09/10 07:49:45;;;;;;;;;;;;;;;22.03;56.88;99222.22;4476696;32;35401;-61
2022/09/10 07:52:12;;;;;;;;;;;;;;;21.99;57.76;99223.66;4477843;32;34876;-61
2022/09/10 07:54:40;;;;;;;;;;;;;;;21.95;57.85;99220.50;4478847;32;34631;-61
2022/09/10 07:57:09;;;;;;;;;;;;;;;22.10;57.89;99221.22;4478208;32;33730;-61
2022/09/10 07:59:37;;;;;;;;;;;;;;;21.95;57.96;99216.94;4479058;32;33919;-61
2022/09/10 08:02:05;;;;;;;;;;;;;;;22.19;57.33;99218.38;4473473;32;35263;-61
2022/09/10 08:04:36;;;;;;;;;;;;;;;21.91;58.65;99219.22;4478819;32;32715;-62
2022/09/10 08:07:03;;;;;;;;;;;;;;;21.78;59.17;99219.97;4472626;32;32653;-62
2022/09/10 08:09:30;;;;;;;;;;;;;;;22.15;58.26;99217.03;4477979;32;34459;-61
2022/09/10 08:11:58;;;;;;;;;;;;;;;21.34;61.33;99218.38;4480427;32;34229;-61
2022/09/10 08:14:26;;;;;;;;;;;;;;;21.20;61.46;99216.59;4478906;32;34180;-61
2022/09/10 08:16:54;;;;;;;;;;;;;;;21.35;61.45;99220.09;4481594;32;35330;-61
2022/09/10 08:19:22;;;;;;;;;;;;;;;21.64;60.69;99223.66;4479575;32;33909;-62
2022/09/10 08:21:50;;;;;;;;;;;;;;;21.75;59.22;99228.56;4479177;32;34452;-61
2022/09/10 08:24:18;;;;;;;;;;;;;;;21.32;60.56;99228.63;4476839;32;35343;-62
2022/09/10 08:26:46;;;;;;;;;;;;;;;21.73;58.22;99221.63;4473855;32;33543;-61
2022/09/10 08:29:13;;;;;;;;;;;;;;;22.01;57.88;99225.16;4474749;32;33956;-61
2022/09/10 08:31:41;;;;;;;;;;;;;;;21.60;58.49;99223.22;4477572;32;34199;-61
2022/09/10 08:34:10;;;;;;;;;;;;;;;22.28;56.04;99225.34;4481194;32;34598;-61
2022/09/10 08:36:38;;;;;;;;;;;;;;;21.90;57.21;99228.44;4480974;32;33501;-61
2022/09/10 08:39:06;;;;;;;;;;;;;;;21.75;56.25;99230.44;4478131;32;34215;-63
2022/09/10 08:41:37;;;;;;;;;;;;;;;21.63;56.16;99230.13;4475085;32;34458;-62
2022/09/10 08:44:08;;;;;;;;;;;;;;;21.37;55.97;99228.91;4478061;32;33227;-62
2022/09/10 08:46:44;;;;;;;;;;;;;;;21.80;54.27;99227.97;4479612;32;33588;-62
2022/09/10 08:49:30;;;;;;;;;;;;;;;21.14;56.21;99225.53;4471107;32;33578;-61
2022/09/10 08:52:00;;;;;;;;;;;;;;;21.43;55.92;99216.37;4479907;32;35647;-62
2022/09/10 08:54:33;;;;;;;;;;;;;;;21.19;55.56;99228.53;4480889;32;34457;-61
2022/09/10 08:57:02;;;;;;;;;;;;;;;21.69;55.51;99232.06;4477930;32;33513;-61
2022/09/10 08:59:32;;;;;;;;;;;;;;;21.35;55.99;99231.00;4472712;32;34156;-61
2022/09/10 09:02:25;;;;;;;;;;;;;;;21.75;55.16;99234.00;4467591;32;35948;-61
2022/09/10 09:05:16;;;;;;;;;;;;;;;21.38;56.43;99229.75;4481184;32;34466;-61
2022/09/10 09:07:45;;;;;;;;;;;;;;;21.75;54.50;99238.59;4476543;32;33054;-61
2022/09/10 09:10:34;;;;;;;;;;;;;;;21.89;54.75;99245.81;4465107;32;33836;-61
2022/09/10 09:13:07;;;;;;;;;;;;;;;22.13;53.96;99236.31;4454503;32;32736;-62
2022/09/10 09:15:48;;;;;;;;;;;;;;;22.30;53.71;99239.56;4478215;32;34267;-61
2022/09/10 09:18:31;;;;;;;;;;;;;;;22.27;54.04;99235.38;4476869;32;33954;-61
2022/09/10 09:21:00;;;;;;;;;;;;;;;22.47;53.07;99237.34;4473889;32;34309;-61
2022/09/10 09:23:48;;;;;;;;;;;;;;;22.50;53.40;99234.19;4477775;32;33073;-61
2022/09/10 09:26:37;;;;;;;;;;;;;;;22.49;52.35;99232.53;4480811;32;35337;-63
2022/09/10 09:29:16;;;;;;;;;;;;;;;22.70;52.21;99240.59;4478704;32;32286;-63
2022/09/10 09:31:49;;;;;;;;;;;;;;;22.29;52.37;99240.63;4471569;32;35205;-62
2022/09/10 09:34:23;;;;;;;;;;;;;;;23.27;50.84;99238.37;4465063;32;33377;-62
2022/09/10 09:36:51;;;;;;;;;;;;;;;23.37;49.27;99241.56;4481595;32;34619;-61
2022/09/10 09:39:19;;;;;;;;;;;;;;;23.21;49.79;99234.62;4461018;32;32059;-63
2022/09/10 09:42:01;;;;;;;;;;;;;;;22.90;49.70;99237.06;4480446;32;34165;-61
2022/09/10 09:44:30;;;;;;;;;;;;;;;23.31;48.51;99236.94;4481452;32;34381;-62
2022/09/10 09:46:58;;;;;;;;;;;;;;;23.22;49.26;99238.19;4455617;32;32593;-62
2022/09/10 09:49:26;;;;;;;;;;;;;;;23.61;48.57;99231.87;4474588;32;33407;-62
2022/09/10 09:51:54;;;;;;;;;;;;;;;22.92;48.72;99224.91;4473819;32;35197;-62
2022/09/10 09:54:23;;;;;;;;;;;;;;;22.91;50.37;99225.09;4481282;32;34534;-63
2022/09/10 09:57:14;;;;;;;;;;;;;;;23.20;47.37;99208.34;4463478;32;34392;-61
2022/09/10 09:59:41;;;;;;;;;;;;;;;22.81;48.86;99220.03;4479618;32;31293;-62
2022/09/10 10:02:10;;;;;;;;;;;;;;;23.10;47.46;99218.00;4459720;32;32901;-62
2022/09/10 10:04:38;;;;;;;;;;;;;;;23.48;46.07;99210.88;4476058;32;34119;-62
2022/09/10 10:07:09;;;;;;;;;;;;;;;23.00;46.51;99211.06;4482469;32;32992;-65
2022/09/10 10:09:38;;;;;;;;;;;;;;;23.28;46.44;99207.31;4477966;32;34598;-62
2022/09/10 10:12:07;;;;;;;;;;;;;;;23.00;47.34;99208.34;4476319;32;34183;-64
2022/09/10 10:14:40;;;;;;;;;;;;;;;23.24;47.09;99200.59;4482111;32;34579;-62
2022/09/10 10:17:40;;;;;;;;;;;;;;;23.58;45.34;99193.22;4483568;32;34108;-62
2022/09/10 10:20:13;;;;;;;;;;;;;;;23.59;46.45;99200.34;4452702;32;33690;-62
2022/09/10 10:22:42;;;;;;;;;;;;;;;23.53;46.00;99195.75;4482627;32;33824;-62
2022/09/10 10:25:29;;;;;;;;;;;;;;;23.16;46.69;99192.63;4474123;32;35272;-62
2022/09/10 10:27:56;;;;;;;;;;;;;;;23.10;47.06;99191.56;4478601;32;35074;-62
2022/09/10 10:30:24;;;;;;;;;;;;;;;23.49;46.74;99187.13;4483873;32;33553;-62
2022/09/10 10:32:57;;;;;;;;;;;;;;;23.43;45.72;99185.25;4472261;32;33878;-62
2022/09/10 10:35:43;;;;;;;;;;;;;;;23.46;44.65;99182.09;4468646;32;32744;-62
2022/09/10 10:38:13;;;;;;;;;;;;;;;23.83;45.21;99179.75;4472670;32;35341;-62
2022/09/10 10:40:47;;;;;;;;;;;;;;;23.99;43.63;99184.75;4480181;32;32052;-63
2022/09/10 10:43:24;;;;;;;;;;;;;;;24.23;44.33;99185.06;4469168;32;33920;-62
2022/09/10 10:46:00;;;;;;;;;;;;;;;24.07;42.97;99186.41;4469055;32;35503;-62
2022/09/10 10:48:27;;;;;;;;;;;;;;;24.08;43.23;99182.62;4477342;32;34516;-62
2022/09/10 10:50:57;;;;;;;;;;;;;;;24.83;41.85;99177.44;4480488;32;33815;-62
2022/09/10 10:53:25;;;;;;;;;;;;;;;24.87;40.61;99189.59;4479866;32;34244;-62
2022/09/10 10:56:02;;;;;;;;;;;;;;;24.84;41.84;99184.56;4474321;32;32969;-63
2022/09/10 10:58:36;;;;;;;;;;;;;;;24.94;41.51;99186.81;4480255;32;34347;-64
2022/09/10 11:01:17;;;;;;;;;;;;;;;24.95;41.79;99183.03;4479349;32;33400;-62
2022/09/10 11:03:50;;;;;;;;;;;;;;;25.22;40.84;99179.03;4459875;32;32533;-62
2022/09/10 11:06:19;;;;;;;;;;;;;;;25.23;40.26;99183.47;4474714;32;35360;-62
2022/09/10 11:08:49;;;;;;;;;;;;;;;25.10;40.65;99189.00;4458555;32;32993;-62
2022/09/10 11:11:18;;;;;;;;;;;;;;;25.73;39.57;99191.63;4476824;32;33574;-62
2022/09/10 11:13:47;;;;;;;;;;;;;;;25.68;39.97;99187.91;4472548;32;33882;-62
2022/09/10 11:16:20;;;;;;;;;;;;;;;25.71;38.55;99196.50;4482748;32;33369;-62
2022/09/10 11:19:10;;;;;;;;;;;;;;;25.90;37.43;99191.91;4475718;32;34206;-63
2022/09/10 11:21:44;;;;;;;;;;;;;;;25.77;38.11;99192.84;4463344;32;32072;-63
2022/09/10 11:24:13;;;;;;;;;;;;;;;26.08;37.93;99185.59;4476609;32;34131;-63
2022/09/10 11:27:04;;;;;;;;;;;;;;;25.89;38.21;99183.94;4475187;32;34425;-62
2022/09/10 11:29:34;;;;;;;;;;;;;;;25.09;39.11;99190.06;4467806;32;32615;-62
2022/09/10 11:32:25;;;;;;;;;;;;;;;25.59;38.57;99192.00;4479960;32;34483;-62
2022/09/10 11:34:57;;;;;;;;;;;;;;;25.66;38.95;99190.03;4457963;32;32666;-62
2022/09/10 11:37:33;;;;;;;;;;;;;;;25.72;38.45;99189.16;4470609;32;33318;-63
2022/09/10 11:40:04;;;;;;;;;;;;;;;25.52;39.25;99189.31;4463340;32;32706;-62
2022/09/10 11:42:39;;;;;;;;;;;;;;;25.68;38.29;99183.28;4458716;32;33467;-62
2022/09/10 11:45:12;;;;;;;;;;;;;;;25.65;38.13;99186.47;4457492;32;32443;-63
2022/09/10 11:47:41;;;;;;;;;;;;;;;26.00;37.45;99177.66;4459872;32;32466;-62
2022/09/10 11:50:18;;;;;;;;;;;;;;;26.29;37.25;99178.78;4472300;32;32781;-62
2022/09/10 11:52:45;;;;;;;;;;;;;;;26.52;37.15;99169.87;4481510;32;34643;-62
2022/09/10 11:55:13;;;;;;;;;;;;;;;26.61;36.20;99162.16;4482084;32;34019;-62
2022/09/10 11:57:40;;;;;;;;;;;;;;;25.88;38.56;99177.59;4478988;32;35145;-62
2022/09/10 12:00:10;;;;;;;;;;;;;;;26.19;36.72;99171.09;4477512;32;34509;-62
2022/09/10 12:02:38;;;;;;;;;;;;;;;26.02;37.43;99178.28;4478360;32;32133;-62
2022/09/10 12:05:25;;;;;;;;;;;;;;;26.27;36.75;99191.09;4483333;32;33874;-62
2022/09/10 12:08:02;;;;;;;;;;;;;;;26.32;35.54;99185.72;4469477;32;35434;-61
2022/09/10 12:10:36;;;;;;;;;;;;;;;25.61;36.65;99177.00;4482870;32;33718;-62
2022/09/10 12:13:12;;;;;;;;;;;;;;;26.12;36.00;99173.09;4479449;32;34682;-62
2022/09/10 12:15:40;;;;;;;;;;;;;;;25.79;36.77;99174.28;4478809;32;34245;-62
2022/09/10 12:18:15;;;;;;;;;;;;;;;25.24;38.02;99168.72;4475242;32;34270;-62
2022/09/10 12:20:47;;;;;;;;;;;;;;;26.01;37.57;99171.13;4468711;32;34094;-62
2022/09/10 12:23:16;;;;;;;;;;;;;;;26.08;36.62;99182.84;4476830;32;32865;-61
2022/09/10 12:25:44;;;;;;;;;;;;;;;25.65;36.98;99175.50;4460410;32;32609;-62
2022/09/10 12:28:30;;;;;;;;;;;;;;;26.10;36.79;99167.03;4480168;32;34960;-62
2022/09/10 12:30:59;;;;;;;;;;;;;;;26.33;36.04;99170.97;4478276;32;33016;-63
2022/09/10 12:33:26;;;;;;;;;;;;;;;26.47;35.86;99169.69;4480827;32;33240;-62
2022/09/10 12:35:53;;;;;;;;;;;;;;;25.68;36.30;99169.56;4478282;32;35569;-65
2022/09/10 12:38:40;;;;;;;;;;;;;;;25.95;35.79;99183.00;4480771;32;35523;-62
2022/09/10 12:41:09;;;;;;;;;;;;;;;25.42;36.41;99167.91;4481270;32;35493;-62
2022/09/10 12:43:42;;;;;;;;;;;;;;;26.09;34.94;99170.81;4479222;32;31903;-63
2022/09/10 12:46:09;;;;;;;;;;;;;;;25.87;36.84;99164.94;4475775;32;34920;-62
2022/09/10 12:48:38;;;;;;;;;;;;;;;25.50;36.89;99164.06;4479291;32;34876;-62
2022/09/10 12:51:12;;;;;;;;;;;;;;;24.91;38.16;99155.28;4483192;32;35774;-62
2022/09/10 12:53:46;;;;;;;;;;;;;;;25.01;37.11;99143.81;4472832;32;34375;-62
2022/09/10 12:56:46;;;;;;;;;;;;;;;25.21;37.99;99151.91;4473287;32;34287;-62
2022/09/10 12:59:17;;;;;;;;;;;;;;;25.75;37.19;99155.81;4443941;31;34563;-62
2022/09/10 13:01:45;;;;;;;;;;;;;;;25.03;37.74;99156.22;4479333;32;33676;-62
2022/09/10 13:04:18;;;;;;;;;;;;;;;25.44;37.52;99154.00;4476054;32;33625;-61
2022/09/10 13:06:46;;;;;;;;;;;;;;;25.06;38.49;99157.66;4476021;32;34169;-63